Time;durP1;ratioP1;P1;durP2;ratioP2;P2;SDS_P1;SDS_P2;PMS_P1;PMS_P2;Temp;Humidity;BMP_temperature;BMP_pressure;BME280_temperature;BME280_humidity;BME280_pressure;Samples;Min_cycle;Max_cycle;Signal;HPM_P1;HPM_P2
2022/11/09 00:00:47;;;;;;;0.97;0.60;;;11.60;99.90;;;;;;5114469;28;20544;-80
2022/11/09 00:03:16;;;;;;;0.60;0.60;;;11.60;99.90;;;;;;5114333;28;20463;-79
2022/11/09 00:05:42;;;;;;;3.70;0.60;;;11.60;99.90;;;;;;5114310;28;20483;-80
2022/11/09 00:08:10;;;;;;;0.70;0.50;;;11.60;99.90;;;;;;5114354;28;20444;-79
2022/11/09 00:10:38;;;;;;;2.83;0.50;;;11.60;99.90;;;;;;5114313;28;20443;-79
2022/11/09 00:13:05;;;;;;;0.60;0.50;;;11.60;99.90;;;;;;5114197;28;20559;-79
2022/11/09 00:15:32;;;;;;;0.80;0.50;;;11.70;99.90;;;;;;5114196;28;20440;-80
2022/11/09 00:18:01;;;;;;;2.43;0.97;;;11.70;99.90;;;;;;5113780;28;20483;-80
2022/11/09 00:20:30;;;;;;;0.50;0.50;;;11.60;99.90;;;;;;5114854;28;20508;-79
2022/11/09 00:22:56;;;;;;;0.50;0.50;;;11.70;99.90;;;;;;5113727;28;20988;-79
2022/11/09 00:25:23;;;;;;;0.40;0.40;;;11.70;99.90;;;;;;5113744;28;20476;-80
2022/11/09 00:27:50;;;;;;;0.50;0.40;;;11.70;99.90;;;;;;5114030;28;20451;-80
2022/11/09 00:30:17;;;;;;;0.47;0.47;;;11.70;99.90;;;;;;5114754;28;20460;-80
2022/11/09 00:32:44;;;;;;;1.47;0.90;;;11.70;99.90;;;;;;5113547;28;20474;-80
2022/11/09 00:35:11;;;;;;;1.43;0.60;;;11.70;99.90;;;;;;5113948;28;20456;-79
2022/11/09 00:37:39;;;;;;;0.47;0.47;;;11.70;99.90;;;;;;5113898;28;20454;-80
2022/11/09 00:40:07;;;;;;;0.60;0.60;;;11.70;99.90;;;;;;5113917;28;20444;-79
2022/11/09 00:42:34;;;;;;;0.80;0.50;;;11.70;99.90;;;;;;5113513;28;20555;-79
2022/11/09 00:45:01;;;;;;;0.50;0.50;;;11.80;99.90;;;;;;5113819;28;20448;-80
2022/11/09 00:47:28;;;;;;;1.77;0.87;;;11.80;99.90;;;;;;5113514;28;20971;-80
2022/11/09 00:49:55;;;;;;;0.60;0.50;;;11.80;99.90;;;;;;5113537;28;20938;-79
2022/11/09 00:52:22;;;;;;;0.50;0.40;;;11.80;99.90;;;;;;5113673;28;20471;-80
2022/11/09 00:54:50;;;;;;;0.60;0.50;;;11.80;99.90;;;;;;5113803;28;20440;-79
2022/11/09 00:57:17;;;;;;;0.47;0.47;;;11.80;99.90;;;;;;5115539;28;20443;-79
2022/11/09 00:59:44;;;;;;;0.70;0.70;;;11.80;99.90;;;;;;5118018;28;20450;-79
2022/11/09 01:02:11;;;;;;;0.40;0.40;;;11.80;99.90;;;;;;5117572;28;20978;-79
2022/11/09 01:04:38;;;;;;;0.40;0.40;;;11.80;99.90;;;;;;5117608;28;20934;-79
2022/11/09 01:07:06;;;;;;;0.63;0.53;;;11.90;99.90;;;;;;5117801;28;20491;-79
2022/11/09 01:09:33;;;;;;;0.80;0.80;;;11.80;99.90;;;;;;5117762;28;20447;-79
2022/11/09 01:12:01;;;;;;;0.60;0.50;;;11.80;99.90;;;;;;5117662;28;20496;-80
2022/11/09 01:14:28;;;;;;;0.50;0.40;;;11.80;99.90;;;;;;5117699;28;20450;-80
2022/11/09 01:16:54;;;;;;;0.77;0.53;;;11.80;99.90;;;;;;5117555;28;20447;-80
2022/11/09 01:19:21;;;;;;;0.47;0.47;;;11.80;99.90;;;;;;5117727;28;20436;-80
2022/11/09 01:21:48;;;;;;;0.87;0.70;;;11.80;99.90;;;;;;5117496;28;20443;-80
2022/11/09 01:24:15;;;;;;;0.93;0.67;;;11.80;99.90;;;;;;5117208;28;20454;-80
2022/11/09 01:26:42;;;;;;;0.90;0.50;;;11.80;99.90;;;;;;5117070;28;21005;-80
2022/11/09 01:29:10;;;;;;;3.43;0.80;;;11.80;99.90;;;;;;5117464;28;20446;-80
2022/11/09 01:31:36;;;;;;;3.03;0.80;;;11.70;99.90;;;;;;5117348;28;20448;-80
2022/11/09 01:34:03;;;;;;;0.50;0.37;;;11.70;99.90;;;;;;5117313;28;20447;-80
2022/11/09 01:36:30;;;;;;;0.70;0.40;;;11.70;99.90;;;;;;5116972;28;20971;-80
2022/11/09 01:38:57;;;;;;;0.40;0.40;;;11.70;99.90;;;;;;5116924;28;20809;-80
2022/11/09 01:41:26;;;;;;;0.90;0.60;;;11.70;99.90;;;;;;5117179;28;20443;-80
2022/11/09 01:44:07;;;;;;;0.90;0.70;;;11.70;99.90;;;;;;5116752;28;20463;-79
2022/11/09 01:46:40;;;;;;;1.60;0.60;;;11.80;99.90;;;;;;5117054;28;20470;-80
2022/11/09 01:49:13;;;;;;;0.80;0.47;;;11.80;99.90;;;;;;5117067;28;20436;-80
2022/11/09 01:51:43;;;;;;;1.33;0.90;;;11.80;99.90;;;;;;5116953;28;20432;-80
2022/11/09 01:54:17;;;;;;;1.27;0.50;;;11.80;99.90;;;;;;5117015;28;20427;-79
2022/11/09 01:56:45;;;;;;;0.57;0.57;;;11.80;99.90;;;;;;5116944;28;20428;-79
2022/11/09 01:59:17;;;;;;;0.87;0.60;;;11.80;99.90;;;;;;5116839;28;20451;-80
2022/11/09 02:01:46;;;;;;;2.27;1.50;;;11.80;99.90;;;;;;5116764;28;20432;-79
2022/11/09 02:04:16;;;;;;;1.33;0.67;;;11.80;99.90;;;;;;5116731;28;20520;-79
2022/11/09 02:06:44;;;;;;;1.90;0.80;;;11.80;99.90;;;;;;5116341;28;20472;-79
2022/11/09 02:09:21;;;;;;;0.80;0.50;;;11.90;99.90;;;;;;5114923;28;20950;-80
2022/11/09 02:11:47;;;;;;;0.50;0.50;;;11.90;99.90;;;;;;5116580;28;20431;-79
2022/11/09 02:14:15;;;;;;;0.90;0.40;;;11.80;99.90;;;;;;5116565;28;20451;-79
2022/11/09 02:16:42;;;;;;;0.60;0.60;;;11.90;99.90;;;;;;5116304;28;20450;-80
2022/11/09 02:19:10;;;;;;;0.50;0.40;;;11.90;99.90;;;;;;5116489;28;20438;-79
2022/11/09 02:21:39;;;;;;;1.00;0.60;;;11.90;99.90;;;;;;5116345;28;20815;-79
2022/11/09 02:24:06;;;;;;;0.57;0.57;;;12.00;99.90;;;;;;5116392;28;20440;-80
2022/11/09 02:26:38;;;;;;;1.80;0.60;;;12.00;99.90;;;;;;5115934;28;20998;-79
2022/11/09 02:29:09;;;;;;;1.00;0.83;;;11.90;99.90;;;;;;5116033;28;20903;-79
2022/11/09 02:31:39;;;;;;;0.50;0.50;;;12.00;99.90;;;;;;5116261;28;20436;-79
2022/11/09 02:34:10;;;;;;;0.53;0.53;;;12.00;99.90;;;;;;5116244;28;20438;-79
2022/11/09 02:36:38;;;;;;;0.80;0.80;;;12.00;99.90;;;;;;5116202;28;20812;-79
2022/11/09 02:39:05;;;;;;;1.07;0.50;;;12.00;99.90;;;;;;5116092;28;20447;-80
2022/11/09 02:41:36;;;;;;;0.53;0.50;;;11.90;99.90;;;;;;5116096;28;20448;-80
2022/11/09 02:44:03;;;;;;;0.90;0.60;;;11.90;99.90;;;;;;5115969;28;20479;-80
2022/11/09 02:46:33;;;;;;;0.40;0.40;;;11.90;99.90;;;;;;5115892;28;20475;-79
2022/11/09 02:49:00;;;;;;;1.50;0.60;;;11.80;99.90;;;;;;5115883;28;20440;-79
2022/11/09 02:51:26;;;;;;;1.40;0.90;;;11.80;99.90;;;;;;5115853;28;20444;-79
2022/11/09 02:53:55;;;;;;;0.60;0.60;;;11.70;99.90;;;;;;5115436;28;20985;-79
2022/11/09 02:56:22;;;;;;;0.40;0.40;;;11.80;99.90;;;;;;5115954;28;20543;-79
2022/11/09 02:58:49;;;;;;;0.50;0.50;;;11.70;99.90;;;;;;5115394;28;20448;-80
2022/11/09 03:01:16;;;;;;;0.83;0.57;;;11.70;99.90;;;;;;5115354;28;20449;-79
2022/11/09 03:03:43;;;;;;;0.40;0.40;;;11.70;99.90;;;;;;5115206;28;20834;-81
2022/11/09 03:06:09;;;;;;;0.40;0.40;;;11.70;99.90;;;;;;5115520;28;20479;-81
2022/11/09 03:08:36;;;;;;;1.13;0.70;;;11.70;99.90;;;;;;5115187;28;20444;-80
2022/11/09 03:11:05;;;;;;;0.90;0.57;;;11.60;99.90;;;;;;5115420;28;20451;-80
2022/11/09 03:13:32;;;;;;;0.43;0.43;;;11.50;99.90;;;;;;5115332;28;20468;-80
2022/11/09 03:15:58;;;;;;;0.57;0.47;;;11.40;99.90;;;;;;5115374;28;20442;-80
2022/11/09 03:18:26;;;;;;;1.27;0.93;;;11.30;99.90;;;;;;5114886;28;20486;-79
2022/11/09 03:20:53;;;;;;;0.80;0.70;;;11.20;99.90;;;;;;5114800;28;20558;-79
2022/11/09 03:23:19;;;;;;;0.70;0.50;;;11.10;99.90;;;;;;5115137;28;20468;-79
2022/11/09 03:25:46;;;;;;;0.73;0.73;;;11.00;99.90;;;;;;5114884;28;20969;-79
2022/11/09 03:28:14;;;;;;;0.87;0.87;;;11.00;99.90;;;;;;5115068;28;20444;-79
2022/11/09 03:30:41;;;;;;;1.10;1.00;;;10.90;99.90;;;;;;5114735;28;20454;-79
2022/11/09 03:33:09;;;;;;;0.80;0.40;;;10.90;99.90;;;;;;5114956;28;20464;-79
2022/11/09 03:35:36;;;;;;;0.60;0.57;;;10.90;99.90;;;;;;5114996;28;20456;-79
2022/11/09 03:38:03;;;;;;;1.90;0.83;;;10.90;99.90;;;;;;5114911;28;20436;-78
2022/11/09 03:40:30;;;;;;;3.13;0.67;;;10.90;99.90;;;;;;5114641;28;20431;-78
2022/11/09 03:42:57;;;;;;;0.97;0.70;;;10.90;99.90;;;;;;5114568;28;20467;-78
2022/11/09 03:45:26;;;;;;;0.70;0.60;;;10.80;99.90;;;;;;5114768;28;20451;-78
2022/11/09 03:47:55;;;;;;;0.50;0.40;;;10.80;99.90;;;;;;5114655;28;20475;-78
2022/11/09 03:50:22;;;;;;;0.60;0.50;;;10.80;99.90;;;;;;5114378;28;20452;-78
2022/11/09 03:52:49;;;;;;;0.50;0.40;;;10.70;99.90;;;;;;5114548;28;20554;-78
2022/11/09 03:55:16;;;;;;;0.80;0.70;;;10.70;99.90;;;;;;5114571;28;20443;-78
2022/11/09 03:57:44;;;;;;;1.00;0.50;;;10.70;99.90;;;;;;5114237;28;20950;-78
2022/11/09 04:00:13;;;;;;;0.97;0.50;;;10.70;99.90;;;;;;5115336;28;20832;-78
2022/11/09 04:02:41;;;;;;;1.03;0.50;;;10.70;99.90;;;;;;5114404;28;20472;-78
2022/11/09 04:05:09;;;;;;;0.67;0.43;;;10.70;99.90;;;;;;5114096;28;20988;-78
2022/11/09 04:07:36;;;;;;;0.60;0.60;;;10.70;99.90;;;;;;5113979;28;20997;-78
2022/11/09 04:10:04;;;;;;;2.00;0.60;;;10.70;99.90;;;;;;5114322;28;20443;-78
2022/11/09 04:12:31;;;;;;;0.53;0.53;;;10.60;99.90;;;;;;5113865;28;20478;-78
2022/11/09 04:14:58;;;;;;;0.40;0.40;;;10.60;99.90;;;;;;5113941;28;20799;-78
2022/11/09 04:17:25;;;;;;;0.50;0.50;;;10.60;99.90;;;;;;5113634;28;20506;-78
2022/11/09 04:19:53;;;;;;;0.80;0.30;;;10.60;99.90;;;;;;5114192;28;20444;-78
2022/11/09 04:22:20;;;;;;;0.60;0.60;;;10.60;99.90;;;;;;5113789;28;21021;-77
2022/11/09 04:24:46;;;;;;;2.87;0.60;;;10.60;99.90;;;;;;5114146;28;20454;-76
2022/11/09 04:27:14;;;;;;;1.33;0.60;;;10.60;99.90;;;;;;5114009;28;20482;-77
2022/11/09 04:29:41;;;;;;;0.70;0.50;;;10.60;99.90;;;;;;5114080;28;20456;-77
2022/11/09 04:32:07;;;;;;;0.80;0.57;;;10.60;99.90;;;;;;5112871;28;21006;-77
2022/11/09 04:34:34;;;;;;;0.40;0.40;;;10.60;99.90;;;;;;5113985;28;20809;-77
2022/11/09 04:37:02;;;;;;;0.40;0.40;;;10.60;99.90;;;;;;5113615;28;20947;-77
2022/11/09 04:39:29;;;;;;;0.40;0.40;;;10.60;99.90;;;;;;5113954;28;20840;-77
2022/11/09 04:41:56;;;;;;;0.70;0.60;;;10.50;99.90;;;;;;5113793;28;20451;-77
2022/11/09 04:44:23;;;;;;;0.50;0.50;;;10.50;99.90;;;;;;5113547;28;20977;-77
2022/11/09 04:46:49;;;;;;;0.50;0.50;;;10.40;99.90;;;;;;5113755;28;20483;-77
2022/11/09 04:49:16;;;;;;;0.83;0.50;;;10.40;99.90;;;;;;5113783;28;20447;-77
2022/11/09 04:51:43;;;;;;;0.40;0.30;;;10.30;99.90;;;;;;5113690;28;20463;-77
2022/11/09 04:54:12;;;;;;;0.60;0.50;;;10.30;99.90;;;;;;5113456;28;20475;-76
2022/11/09 04:56:39;;;;;;;0.53;0.47;;;10.20;99.90;;;;;;5113447;28;20443;-76
2022/11/09 04:59:06;;;;;;;0.60;0.60;;;10.30;99.90;;;;;;5113719;28;20446;-77
2022/11/09 05:01:32;;;;;;;0.40;0.40;;;10.20;99.90;;;;;;5113709;28;20456;-77
2022/11/09 05:03:59;;;;;;;0.40;0.40;;;10.20;99.90;;;;;;5113797;28;20471;-77
2022/11/09 05:06:32;;;;;;;0.60;0.40;;;10.20;99.90;;;;;;5113511;28;20535;-78
2022/11/09 05:09:00;;;;;;;2.50;1.13;;;10.20;99.90;;;;;;5113373;28;20930;-78
2022/11/09 05:11:28;;;;;;;0.30;0.30;;;10.20;99.90;;;;;;5113613;28;20464;-77
2022/11/09 05:13:55;;;;;;;0.40;0.40;;;10.20;99.90;;;;;;5113497;28;20546;-77
2022/11/09 05:16:23;;;;;;;0.53;0.53;;;10.20;99.90;;;;;;5113575;28;20816;-77
2022/11/09 05:18:50;;;;;;;1.77;0.60;;;10.10;99.90;;;;;;5112817;28;20485;-78
2022/11/09 05:21:16;;;;;;;1.13;0.70;;;10.10;99.90;;;;;;5114319;28;20457;-77
2022/11/09 05:23:58;;;;;;;0.53;0.53;;;10.10;99.90;;;;;;5113077;28;20459;-78
2022/11/09 05:26:27;;;;;;;0.43;0.40;;;10.10;99.90;;;;;;5113401;28;20451;-78
2022/11/09 05:28:57;;;;;;;2.30;0.63;;;10.10;99.90;;;;;;5113201;28;20507;-78
2022/11/09 05:31:25;;;;;;;4.20;0.40;;;10.00;99.90;;;;;;5113415;28;20459;-78
2022/11/09 05:33:52;;;;;;;1.80;1.20;;;10.00;99.90;;;;;;5112956;28;20847;-77
2022/11/09 05:36:19;;;;;;;0.40;0.40;;;10.00;99.90;;;;;;5113368;28;20444;-78
2022/11/09 05:38:47;;;;;;;0.70;0.43;;;10.00;99.90;;;;;;5113046;28;20951;-77
2022/11/09 05:41:14;;;;;;;0.40;0.40;;;10.00;99.90;;;;;;5112991;28;20456;-77
2022/11/09 05:43:43;;;;;;;0.47;0.47;;;10.00;99.90;;;;;;5115742;28;20463;-77
2022/11/09 05:46:10;;;;;;;0.40;0.40;;;10.00;99.90;;;;;;5117159;27;20533;-77
2022/11/09 05:48:37;;;;;;;0.47;0.37;;;10.10;99.90;;;;;;5116977;28;20479;-77
2022/11/09 05:51:05;;;;;;;1.70;0.60;;;10.10;99.90;;;;;;5116696;28;20466;-77
2022/11/09 05:53:32;;;;;;;0.80;0.80;;;10.20;99.90;;;;;;5116955;28;20476;-77
2022/11/09 05:56:02;;;;;;;2.50;0.60;;;10.20;99.90;;;;;;5116608;28;20443;-77
2022/11/09 05:58:29;;;;;;;0.43;0.43;;;10.20;99.90;;;;;;5116926;28;20432;-77
2022/11/09 06:00:58;;;;;;;0.60;0.60;;;10.20;99.90;;;;;;5116826;28;20443;-77
2022/11/09 06:03:25;;;;;;;0.50;0.40;;;10.20;99.90;;;;;;5116698;28;20464;-77
2022/11/09 06:05:52;;;;;;;0.50;0.50;;;10.20;99.90;;;;;;5116705;28;20455;-77
2022/11/09 06:08:19;;;;;;;0.50;0.40;;;10.20;99.90;;;;;;5116388;28;20467;-77
2022/11/09 06:10:45;;;;;;;0.70;0.70;;;10.20;99.90;;;;;;5116605;28;20448;-77
2022/11/09 06:13:12;;;;;;;0.50;0.40;;;10.20;99.90;;;;;;5117372;28;20459;-77
2022/11/09 06:15:39;;;;;;;0.70;0.70;;;10.20;99.90;;;;;;5116516;28;20458;-77
2022/11/09 06:18:07;;;;;;;0.53;0.53;;;10.20;99.90;;;;;;5115961;28;20471;-77
2022/11/09 06:20:34;;;;;;;0.40;0.40;;;10.20;99.90;;;;;;5116477;28;20451;-77
2022/11/09 06:23:02;;;;;;;0.60;0.50;;;10.20;99.90;;;;;;5116366;28;20464;-77
2022/11/09 06:25:30;;;;;;;0.80;0.77;;;10.10;99.90;;;;;;5116379;28;20450;-77
2022/11/09 06:27:57;;;;;;;0.60;0.60;;;10.10;99.90;;;;;;5116244;28;20848;-77
2022/11/09 06:30:24;;;;;;;0.40;0.30;;;10.20;99.90;;;;;;5116268;28;20444;-77
2022/11/09 06:32:50;;;;;;;2.00;0.40;;;10.20;99.90;;;;;;5115814;28;21012;-77
2022/11/09 06:35:19;;;;;;;0.50;0.40;;;10.20;99.90;;;;;;5116207;28;20443;-77
2022/11/09 06:37:45;;;;;;;0.30;0.30;;;10.20;99.90;;;;;;5115823;28;20454;-77
2022/11/09 06:40:13;;;;;;;0.40;0.40;;;10.20;99.90;;;;;;5116081;28;20498;-77
2022/11/09 06:42:40;;;;;;;0.40;0.40;;;10.20;99.90;;;;;;5115654;28;20479;-77
2022/11/09 06:45:08;;;;;;;0.80;0.80;;;10.20;99.90;;;;;;5116010;28;20448;-77
2022/11/09 06:47:35;;;;;;;0.57;0.40;;;10.30;99.90;;;;;;5115866;28;20475;-77
2022/11/09 06:50:02;;;;;;;1.77;0.77;;;10.30;99.90;;;;;;5115911;28;20443;-77
2022/11/09 06:52:30;;;;;;;0.50;0.40;;;10.20;99.90;;;;;;5115734;28;20859;-76
2022/11/09 06:54:57;;;;;;;0.40;0.40;;;10.20;99.90;;;;;;5115039;28;20797;-77
2022/11/09 06:57:24;;;;;;;1.80;0.50;;;10.20;99.90;;;;;;5115421;28;20900;-77
2022/11/09 06:59:50;;;;;;;1.33;0.90;;;10.30;99.90;;;;;;5115708;28;20454;-76
2022/11/09 07:02:17;;;;;;;0.40;0.40;;;10.20;99.90;;;;;;5115508;28;20459;-77
2022/11/09 07:04:44;;;;;;;0.50;0.50;;;10.20;99.90;;;;;;5115232;28;20826;-76
2022/11/09 07:07:11;;;;;;;0.40;0.40;;;10.20;99.90;;;;;;5115414;28;20497;-77
2022/11/09 07:09:39;;;;;;;0.40;0.30;;;10.20;99.90;;;;;;5115516;28;20817;-76
2022/11/09 07:12:07;;;;;;;0.40;0.40;;;10.20;99.90;;;;;;5115035;28;20834;-76
2022/11/09 07:14:33;;;;;;;0.67;0.50;;;10.30;99.90;;;;;;5116122;28;20860;-76
2022/11/09 07:17:00;;;;;;;0.50;0.50;;;10.40;99.90;;;;;;5115206;28;20484;-76
2022/11/09 07:19:28;;;;;;;0.60;0.50;;;10.40;99.90;;;;;;5115338;28;20440;-77
2022/11/09 07:21:55;;;;;;;0.50;0.50;;;10.40;99.90;;;;;;5115398;28;20443;-77
2022/11/09 07:24:22;;;;;;;0.50;0.50;;;10.40;99.90;;;;;;5115115;28;20813;-77
2022/11/09 07:26:50;;;;;;;0.60;0.37;;;10.40;99.90;;;;;;5114848;28;20447;-77
2022/11/09 07:29:17;;;;;;;0.77;0.77;;;10.40;99.90;;;;;;5114675;28;20476;-77
2022/11/09 07:31:44;;;;;;;0.40;0.40;;;10.40;99.90;;;;;;5114963;28;20451;-77
2022/11/09 07:34:11;;;;;;;0.40;0.40;;;10.40;99.90;;;;;;5114985;28;20450;-77
2022/11/09 07:36:38;;;;;;;0.60;0.60;;;10.50;99.90;;;;;;5114652;28;20963;-77
2022/11/09 07:39:05;;;;;;;0.60;0.60;;;10.50;99.90;;;;;;5114583;28;20450;-77
2022/11/09 07:41:32;;;;;;;1.30;0.50;;;10.50;99.90;;;;;;5114847;28;20447;-77
2022/11/09 07:44:00;;;;;;;2.97;0.70;;;10.50;99.90;;;;;;5114435;28;20470;-77
2022/11/09 07:46:26;;;;;;;0.70;0.70;;;10.60;99.90;;;;;;5115279;28;20452;-77
2022/11/09 07:48:53;;;;;;;0.90;0.90;;;10.60;99.90;;;;;;5114601;28;20502;-77
2022/11/09 07:51:20;;;;;;;1.07;0.50;;;10.70;99.90;;;;;;5114360;28;20444;-77
2022/11/09 07:53:47;;;;;;;2.03;0.80;;;10.70;99.90;;;;;;5114243;28;20841;-77
2022/11/09 07:56:14;;;;;;;1.07;0.80;;;10.70;99.90;;;;;;5114234;28;20834;-77
2022/11/09 07:58:41;;;;;;;2.20;0.93;;;10.70;99.90;;;;;;5114577;28;20593;-77
2022/11/09 08:01:10;;;;;;;2.40;0.70;;;10.70;99.90;;;;;;5114529;28;20447;-77
2022/11/09 08:03:37;;;;;;;0.40;0.40;;;10.70;99.90;;;;;;5114338;28;20475;-77
2022/11/09 08:06:04;;;;;;;0.80;0.80;;;10.70;99.90;;;;;;5115080;28;20504;-77
2022/11/09 08:08:31;;;;;;;0.67;0.60;;;10.70;99.90;;;;;;5114290;28;20475;-77
2022/11/09 08:10:58;;;;;;;0.50;0.50;;;10.70;99.90;;;;;;5114337;28;20447;-77
2022/11/09 08:13:26;;;;;;;0.87;0.53;;;10.70;99.90;;;;;;5114216;28;20469;-78
2022/11/09 08:15:52;;;;;;;0.40;0.40;;;10.80;99.90;;;;;;5114173;28;20547;-77
2022/11/09 08:18:22;;;;;;;1.07;0.70;;;10.80;99.90;;;;;;5113682;28;20849;-77
2022/11/09 08:20:50;;;;;;;0.43;0.43;;;10.80;99.90;;;;;;5114333;28;20474;-77
2022/11/09 08:23:19;;;;;;;1.00;0.50;;;10.80;99.90;;;;;;5114086;28;20464;-77
2022/11/09 08:25:46;;;;;;;1.73;0.67;;;10.80;99.90;;;;;;5113784;28;20947;-77
2022/11/09 08:28:14;;;;;;;0.73;0.57;;;10.80;99.90;;;;;;5113782;28;20471;-77
2022/11/09 08:30:42;;;;;;;0.87;0.87;;;10.80;99.90;;;;;;5114466;28;20455;-77
2022/11/09 08:33:09;;;;;;;7.00;0.70;;;10.90;99.90;;;;;;5113841;28;20551;-77
2022/11/09 08:35:38;;;;;;;0.40;0.30;;;10.90;99.90;;;;;;5113978;28;20447;-77
2022/11/09 08:38:05;;;;;;;0.40;0.40;;;11.00;99.90;;;;;;5113789;28;20535;-77
2022/11/09 08:40:35;;;;;;;0.40;0.30;;;11.00;99.90;;;;;;5113820;28;20457;-77
2022/11/09 08:43:08;;;;;;;0.50;0.40;;;11.00;99.90;;;;;;5113806;28;20557;-77
2022/11/09 08:45:53;;;;;;;0.87;0.73;;;11.00;99.90;;;;;;5113493;28;20451;-77
2022/11/09 08:48:20;;;;;;;0.40;0.40;;;11.00;99.90;;;;;;5113596;28;21033;-77
2022/11/09 08:50:52;;;;;;;0.30;0.30;;;11.10;99.90;;;;;;5113715;28;20456;-77
2022/11/09 08:53:20;;;;;;;0.50;0.43;;;11.10;99.90;;;;;;5113737;28;20530;-77
2022/11/09 08:56:08;;;;;;;0.40;0.30;;;11.20;99.90;;;;;;5113324;28;20458;-77
2022/11/09 08:58:36;;;;;;;0.30;0.30;;;11.30;99.90;;;;;;5113501;28;20508;-77
2022/11/09 09:01:07;;;;;;;0.40;0.33;;;11.30;99.90;;;;;;5113715;28;20939;-77
2022/11/09 09:03:34;;;;;;;0.40;0.37;;;11.40;99.90;;;;;;5113532;28;20486;-77
2022/11/09 09:06:05;;;;;;;0.30;0.30;;;11.40;99.90;;;;;;5114450;28;20463;-77
2022/11/09 09:08:32;;;;;;;0.40;0.40;;;11.50;99.90;;;;;;5113316;28;20474;-77
2022/11/09 09:11:02;;;;;;;0.30;0.30;;;11.40;99.90;;;;;;5113266;28;20841;-77
2022/11/09 09:13:29;;;;;;;0.30;0.30;;;11.40;99.90;;;;;;5113683;28;20479;-77
2022/11/09 09:15:56;;;;;;;0.40;0.30;;;11.30;99.90;;;;;;5113230;28;20447;-77
2022/11/09 09:18:23;;;;;;;0.40;0.30;;;11.30;99.90;;;;;;5115209;28;20920;-77
2022/11/09 09:20:50;;;;;;;0.30;0.30;;;11.30;99.90;;;;;;5118142;28;20455;-77
2022/11/09 09:23:18;;;;;;;0.30;0.27;;;11.40;99.90;;;;;;5117190;28;20472;-77
2022/11/09 09:25:45;;;;;;;0.30;0.30;;;11.50;99.90;;;;;;5117512;28;20812;-77
2022/11/09 09:28:12;;;;;;;0.30;0.30;;;11.50;99.90;;;;;;5117412;28;20483;-77
2022/11/09 09:30:39;;;;;;;0.30;0.30;;;11.50;99.90;;;;;;5117448;28;20538;-77
2022/11/09 09:33:06;;;;;;;0.30;0.20;;;11.60;99.90;;;;;;5117293;28;20466;-77
2022/11/09 09:35:32;;;;;;;0.30;0.30;;;11.80;99.90;;;;;;5117339;28;20443;-77
2022/11/09 09:37:59;;;;;;;0.50;0.50;;;12.00;99.90;;;;;;5117255;28;20439;-78
2022/11/09 09:40:33;;;;;;;0.40;0.40;;;12.20;99.90;;;;;;5117185;28;20821;-79
2022/11/09 09:43:00;;;;;;;0.50;0.37;;;12.70;99.90;;;;;;5117162;28;20471;-78
2022/11/09 09:45:30;;;;;;;0.30;0.30;;;13.50;99.90;;;;;;5117031;28;20489;-79
2022/11/09 09:48:03;;;;;;;0.53;0.50;;;14.00;99.90;;;;;;5117164;28;20454;-79
2022/11/09 09:50:36;;;;;;;0.57;0.53;;;14.40;99.90;;;;;;5117125;28;20442;-78
2022/11/09 09:53:14;;;;;;;1.00;0.50;;;14.50;99.90;;;;;;5116997;28;20472;-79
2022/11/09 09:55:45;;;;;;;0.80;0.50;;;14.40;99.90;;;;;;5116764;28;20856;-78
2022/11/09 09:58:25;;;;;;;0.70;0.60;;;14.00;99.90;;;;;;5116947;28;20459;-78
2022/11/09 10:00:55;;;;;;;1.03;0.60;;;13.70;99.90;;;;;;5116907;28;20432;-78
2022/11/09 10:03:21;;;;;;;0.70;0.50;;;13.60;99.90;;;;;;5116489;28;21001;-81
2022/11/09 10:05:58;;;;;;;0.40;0.30;;;13.50;99.90;;;;;;5116826;28;20457;-81
2022/11/09 10:08:32;;;;;;;0.40;0.40;;;13.20;99.90;;;;;;5116444;28;20459;-81
2022/11/09 10:11:11;;;;;;;0.40;0.40;;;13.20;99.90;;;;;;5116762;28;20439;-81
2022/11/09 10:14:01;;;;;;;0.80;0.60;;;13.20;99.90;;;;;;5116305;28;20459;-80
2022/11/09 10:16:37;;;;;;;0.80;0.60;;;13.20;99.90;;;;;;5116728;28;20452;-81
2022/11/09 10:19:22;;;;;;;0.50;0.50;;;13.30;99.90;;;;;;5116725;28;20548;-81
2022/11/09 10:21:54;;;;;;;5.70;0.53;;;13.40;99.90;;;;;;5116457;28;20449;-80
2022/11/09 10:24:35;;;;;;;0.50;0.50;;;13.50;99.90;;;;;;5116152;28;20430;-80
2022/11/09 10:27:17;;;;;;;0.70;0.70;;;13.60;99.90;;;;;;5116142;28;20422;-80
2022/11/09 10:29:48;;;;;;;0.50;0.50;;;13.60;99.90;;;;;;5113840;28;20467;-80
2022/11/09 10:32:19;;;;;;;0.97;0.50;;;13.70;99.90;;;;;;5116229;28;20472;-80
2022/11/09 10:34:55;;;;;;;0.40;0.40;;;13.70;99.90;;;;;;5115956;28;20436;-80
2022/11/09 10:37:27;;;;;;;1.33;1.23;;;13.60;99.90;;;;;;5115842;28;20434;-80
2022/11/09 10:39:59;;;;;;;0.70;0.40;;;13.70;99.90;;;;;;5115913;28;20896;-79
2022/11/09 10:42:27;;;;;;;0.70;0.50;;;13.70;99.90;;;;;;5116042;28;20468;-80
2022/11/09 10:44:54;;;;;;;1.00;0.60;;;13.60;99.90;;;;;;5115803;28;20448;-81
2022/11/09 10:47:22;;;;;;;0.40;0.33;;;13.50;99.90;;;;;;5115669;28;20459;-80
2022/11/09 10:50:07;;;;;;;1.23;0.57;;;13.40;99.90;;;;;;5115560;28;21093;-79
2022/11/09 10:52:39;;;;;;;1.47;0.70;;;13.50;99.90;;;;;;5115864;28;20572;-80
2022/11/09 10:55:22;;;;;;;0.50;0.50;;;13.50;99.90;;;;;;5115955;28;20435;-80
2022/11/09 10:58:00;;;;;;;4.33;0.50;;;13.60;99.90;;;;;;5115489;28;20777;-80
2022/11/09 11:00:27;;;;;;;0.40;0.40;;;13.70;99.90;;;;;;5116233;28;20453;-79
2022/11/09 11:02:55;;;;;;;0.50;0.40;;;13.70;99.90;;;;;;5115870;28;20463;-79
2022/11/09 11:05:33;;;;;;;1.37;0.47;;;13.70;99.90;;;;;;5116958;28;20439;-86
2022/11/09 11:08:24;;;;;;;1.00;0.53;;;13.80;99.90;;;;;;5117224;28;20432;-85
2022/11/09 11:10:50;;;;;;;0.70;0.60;;;13.80;99.90;;;;;;5117348;28;20798;-86
2022/11/09 11:13:25;;;;;;;0.40;0.40;;;13.70;99.90;;;;;;5117338;28;20808;-85
2022/11/09 11:15:52;;;;;;;0.60;0.60;;;13.80;99.90;;;;;;5116622;28;20454;-87
2022/11/09 11:18:23;;;;;;;0.47;0.47;;;13.80;99.90;;;;;;5116402;28;20475;-85
2022/11/09 11:21:07;;;;;;;0.67;0.50;;;13.80;99.90;;;;;;5116987;28;20859;-84
2022/11/09 11:23:35;;;;;;;0.60;0.60;;;13.80;99.90;;;;;;5115950;28;20464;-84
2022/11/09 11:26:30;;;;;;;0.53;0.53;;;13.70;99.90;;;;;;5116278;28;20808;-84
2022/11/09 11:29:01;;;;;;;0.50;0.50;;;13.80;99.90;;;;;;5114958;28;21005;-84
2022/11/09 11:31:28;;;;;;;0.90;0.60;;;13.80;99.90;;;;;;5116157;28;20505;-84
2022/11/09 11:33:56;;;;;;;0.80;0.70;;;13.80;99.90;;;;;;5116200;28;20516;-85
2022/11/09 11:36:33;;;;;;;0.50;0.40;;;13.70;99.90;;;;;;5117116;28;20462;-85
2022/11/09 11:39:12;;;;;;;0.50;0.50;;;13.50;99.90;;;;;;5116527;28;20420;-85
2022/11/09 11:41:57;;;;;;;0.50;0.50;;;13.40;99.90;;;;;;5116275;28;20477;-85
2022/11/09 11:44:45;;;;;;;1.03;0.70;;;13.30;99.90;;;;;;5116289;28;20526;-85
2022/11/09 11:47:23;;;;;;;0.50;0.40;;;13.30;99.90;;;;;;5116047;28;20451;-84
2022/11/09 11:50:06;;;;;;;0.70;0.63;;;13.40;99.90;;;;;;5115967;28;20498;-84
2022/11/09 11:52:46;;;;;;;1.03;0.50;;;13.50;99.90;;;;;;5115856;28;20475;-85
2022/11/09 11:55:29;;;;;;;0.40;0.30;;;13.70;99.90;;;;;;5116651;28;20408;-84
2022/11/09 11:58:14;;;;;;;3.60;0.80;;;13.80;99.90;;;;;;5117057;28;20439;-86
2022/11/09 12:00:51;;;;;;;0.53;0.53;;;13.80;99.90;;;;;;5115624;28;20451;-79
2022/11/09 12:03:57;;;;;;;0.40;0.40;;;13.90;99.90;;;;;;5114057;28;20473;-79
2022/11/09 12:06:48;;;;;;;0.97;0.60;;;14.00;99.90;;;;;;5051536;28;20522;-79
2022/11/09 12:09:25;;;;;;;0.90;0.50;;;14.20;99.90;;;;;;5113316;28;20494;-79
2022/11/09 12:12:07;;;;;;;0.70;0.50;;;14.20;99.90;;;;;;5114068;28;20428;-79
2022/11/09 12:14:45;;;;;;;0.70;0.40;;;14.20;99.90;;;;;;5114597;28;20438;-80
2022/11/09 12:17:21;;;;;;;0.40;0.40;;;14.30;99.90;;;;;;5114028;28;20484;-80
2022/11/09 12:20:01;;;;;;;0.40;0.40;;;14.50;99.90;;;;;;5113986;28;20434;-79
2022/11/09 12:22:39;;;;;;;1.50;0.67;;;14.40;99.90;;;;;;5114884;28;20481;-79
2022/11/09 12:25:16;;;;;;;0.43;0.43;;;14.30;99.90;;;;;;5114192;28;20440;-80
2022/11/09 12:28:03;;;;;;;0.77;0.60;;;14.40;99.90;;;;;;5114150;28;20431;-79
2022/11/09 12:30:47;;;;;;;1.20;0.50;;;14.40;99.90;;;;;;5113684;28;20978;-80
2022/11/09 12:33:21;;;;;;;0.67;0.50;;;14.40;99.90;;;;;;5114005;28;20470;-79
2022/11/09 12:35:53;;;;;;;0.50;0.50;;;14.40;99.90;;;;;;5114072;28;20432;-81
2022/11/09 12:38:23;;;;;;;0.47;0.47;;;14.40;99.90;;;;;;5113707;28;20442;-81
2022/11/09 12:40:55;;;;;;;1.37;0.57;;;14.50;99.90;;;;;;5114419;28;20534;-80
2022/11/09 12:43:27;;;;;;;0.50;0.40;;;14.60;99.90;;;;;;5113602;28;20882;-81
2022/11/09 12:45:54;;;;;;;3.50;0.50;;;14.70;99.90;;;;;;5113921;28;20450;-80
2022/11/09 12:48:25;;;;;;;1.33;0.60;;;14.70;99.90;;;;;;5113873;28;20444;-79
2022/11/09 12:50:53;;;;;;;0.57;0.57;;;14.70;99.90;;;;;;5113830;28;20468;-79
2022/11/09 12:53:23;;;;;;;0.40;0.30;;;14.70;99.90;;;;;;5112902;28;20472;-79
2022/11/09 12:55:57;;;;;;;2.50;0.70;;;14.70;99.90;;;;;;5113775;28;20796;-79
2022/11/09 12:58:26;;;;;;;0.50;0.50;;;14.60;99.90;;;;;;5113809;28;20424;-79
2022/11/09 13:00:56;;;;;;;0.77;0.77;;;14.60;99.90;;;;;;5113866;28;20439;-79